TimePDT,TemperatureF,Dew PointF,Humidity,Sea Level PressureIn,VisibilityMPH,Wind Direction,Wind SpeedMPH,Gust SpeedMPH,PrecipitationIn,Events,Conditions,WindDirDegrees,DateUTC
12:58 AM,61.7,30.4,31,29.90,10.0,SSW,6.9,-,N/A,,Clear,210,2013-03-16 07:58:00
1:58 AM,59.4,29.7,32,29.90,10.0,Variable,4.6,-,N/A,,Clear,0,2013-03-16 08:58:00
2:58 AM,55.2,26.6,33,29.90,10.0,West,12.7,-,N/A,,Partly Cloudy,260,2013-03-16 09:58:00
3:58 AM,58.1,22.8,26,29.90,10.0,WSW,3.5,-,N/A,,Mostly Cloudy,240,2013-03-16 10:58:00
4:58 AM,55.0,26.4,33,29.90,10.0,WSW,5.8,-,N/A,,Clear,250,2013-03-16 11:58:00
5:58 AM,55.4,21.6,27,29.91,10.0,WSW,12.7,-,N/A,,Clear,250,2013-03-16 12:58:00
6:58 AM,51.6,27.5,39,29.92,10.0,West,9.2,-,N/A,,Clear,260,2013-03-16 13:58:00
7:58 AM,52.9,25.0,34,29.93,10.0,WSW,5.8,-,N/A,,Clear,250,2013-03-16 14:58:00
8:58 AM,62.1,25.7,25,29.96,10.0,NW,4.6,-,N/A,,Clear,310,2013-03-16 15:58:00
9:58 AM,67.1,22.8,19,29.96,10.0,ENE,1.2,-,N/A,,Clear,70,2013-03-16 16:58:00
10:58 AM,72.5,17.6,12,29.96,10.0,Variable,3.5,-,N/A,,Clear,0,2013-03-16 17:58:00
11:58 AM,73.9,14.5,10,29.94,10.0,Calm,Calm,-,N/A,,Clear,0,2013-03-16 18:58:00
12:58 PM,76.8,13.3,9,29.92,10.0,WNW,5.8,-,N/A,,Clear,300,2013-03-16 19:58:00
1:58 PM,78.3,10.4,8,29.88,10.0,WNW,12.7,16.1,N/A,,Clear,300,2013-03-16 20:58:00
2:58 PM,80.1,9.7,7,29.86,10.0,West,12.7,18.4,N/A,,Clear,280,2013-03-16 21:58:00
3:58 PM,79.7,10.8,7,29.83,10.0,WSW,10.4,-,N/A,,Clear,240,2013-03-16 22:58:00
4:58 PM,79.0,6.8,6,29.82,10.0,West,15.0,24.2,N/A,,Clear,270,2013-03-16 23:58:00
5:58 PM,76.8,5.2,6,29.81,10.0,WSW,18.4,-,N/A,,Clear,250,2013-03-17 00:58:00
6:58 PM,73.2,5.9,7,29.81,10.0,SW,8.1,-,N/A,,Clear,230,2013-03-17 01:58:00
7:58 PM,71.2,7.3,8,29.80,10.0,SSW,9.2,-,N/A,,Clear,210,2013-03-17 02:58:00
8:58 PM,66.4,9.3,11,29.81,10.0,West,11.5,-,N/A,,Clear,260,2013-03-17 03:58:00
9:58 PM,62.8,13.1,14,29.79,10.0,WSW,8.1,-,N/A,,Clear,250,2013-03-17 04:58:00
10:58 PM,59.4,15.3,18,29.80,10.0,NNE,1.2,-,N/A,,Clear,30,2013-03-17 05:58:00
11:58 PM,61.9,12.4,14,29.82,10.0,North,8.1,-,N/A,,Clear,350,2013-03-17 06:58:00